createdAt,value
2022-07-28T00:01:05.653Z,2.28
2022-07-28T00:03:32.738Z,1.95
2022-07-28T00:06:00.033Z,2.00
2022-07-28T00:08:27.252Z,2.08
2022-07-28T00:10:53.998Z,1.70
2022-07-28T00:13:20.774Z,2.15
2022-07-28T00:15:47.928Z,2.25
2022-07-28T00:18:14.601Z,2.10
2022-07-28T00:20:41.694Z,2.35
2022-07-28T00:23:08.825Z,2.30
2022-07-28T00:25:35.929Z,2.50
2022-07-28T00:28:03.046Z,2.35
2022-07-28T00:30:30.619Z,2.35
2022-07-28T00:32:57.439Z,2.20
2022-07-28T00:35:30.276Z,2.10
2022-07-28T00:37:59.718Z,2.33
2022-07-28T00:40:47.257Z,2.45
2022-07-28T00:43:14.745Z,2.33
2022-07-28T00:45:41.964Z,2.53
2022-07-28T00:48:09.357Z,2.22
2022-07-28T00:50:38.963Z,2.60
2022-07-28T00:53:06.716Z,3.15
2022-07-28T00:56:03.299Z,2.50
2022-07-28T00:58:22.207Z,2.22
2022-07-28T01:00:49.352Z,2.13
2022-07-28T01:03:16.645Z,2.13
2022-07-28T01:06:16.700Z,2.33
2022-07-28T01:09:01.258Z,2.45
2022-07-28T01:11:46.975Z,2.13
2022-07-28T01:14:23.616Z,2.08
2022-07-28T01:17:09.015Z,2.45
2022-07-28T01:19:42.542Z,2.45
2022-07-28T01:22:17.178Z,2.50
2022-07-28T01:24:49.930Z,2.58
2022-07-28T01:27:43.227Z,2.38
2022-07-28T01:30:33.950Z,2.45
2022-07-28T01:33:21.325Z,2.08
2022-07-28T01:35:54.204Z,2.28
2022-07-28T01:38:23.792Z,2.50
2022-07-28T01:40:52.872Z,2.42
2022-07-28T01:43:24.322Z,2.50
2022-07-28T01:45:51.768Z,2.30
2022-07-28T01:48:19.674Z,2.88
2022-07-28T01:50:48.590Z,2.08
2022-07-28T01:53:17.623Z,1.90
2022-07-28T01:55:46.229Z,2.13
2022-07-28T01:58:18.861Z,2.35
2022-07-28T02:00:49.605Z,2.13
2022-07-28T02:03:18.771Z,2.13
2022-07-28T02:05:50.203Z,2.50
2022-07-28T02:08:20.329Z,2.88
2022-07-28T02:11:09.181Z,2.50
2022-07-28T02:13:38.051Z,2.55
2022-07-28T02:16:06.824Z,2.47
2022-07-28T02:18:34.508Z,2.65
2022-07-28T02:21:02.538Z,2.55
2022-07-28T02:23:29.756Z,2.67
2022-07-28T02:25:58.709Z,2.50
2022-07-28T02:28:27.982Z,3.08
2022-07-28T02:30:55.103Z,2.20
2022-07-28T02:33:58.533Z,2.50
2022-07-28T02:36:17.170Z,2.10
2022-07-28T02:38:47.033Z,2.28
2022-07-28T02:41:16.904Z,2.53
2022-07-28T02:43:49.716Z,2.40
2022-07-28T02:46:27.159Z,2.10
2022-07-28T02:49:01.037Z,2.75
2022-07-28T02:51:29.723Z,2.20
2022-07-28T02:53:57.912Z,2.58
2022-07-28T02:56:26.270Z,2.70
2022-07-28T02:58:53.884Z,2.50
2022-07-28T03:01:22.955Z,3.03
2022-07-28T03:03:51.133Z,2.72
2022-07-28T03:06:28.399Z,2.67
2022-07-28T03:08:56.213Z,2.83
2022-07-28T03:11:23.061Z,2.40
2022-07-28T03:13:50.185Z,2.50
2022-07-28T03:16:17.418Z,2.83
2022-07-28T03:18:44.554Z,2.85
2022-07-28T03:21:11.698Z,2.88
2022-07-28T03:23:40.895Z,2.33
2022-07-28T03:26:12.314Z,3.10
2022-07-28T03:28:39.620Z,2.50
2022-07-28T03:31:08.289Z,2.35
2022-07-28T03:33:35.124Z,2.55
2022-07-28T03:36:07.045Z,2.50
2022-07-28T03:38:35.948Z,2.83
2022-07-28T03:41:03.862Z,2.50
2022-07-28T03:43:32.099Z,2.38
2022-07-28T03:45:59.233Z,2.83
2022-07-28T03:48:32.850Z,2.95
2022-07-28T03:51:00.082Z,2.65
2022-07-28T03:53:28.480Z,2.50
2022-07-28T03:55:55.957Z,2.75
2022-07-28T03:58:26.201Z,2.50
2022-07-28T04:00:56.405Z,2.40
2022-07-28T04:03:42.387Z,2.20
2022-07-28T04:06:12.847Z,2.60
2022-07-28T04:08:42.679Z,2.67
2022-07-28T04:11:09.783Z,1.90
2022-07-28T04:13:37.179Z,2.15
2022-07-28T04:16:05.088Z,2.72
2022-07-28T04:18:31.804Z,2.60
2022-07-28T04:20:58.951Z,2.35
2022-07-28T04:23:26.169Z,2.97
2022-07-28T04:25:53.293Z,2.85
2022-07-28T04:28:20.424Z,2.70
2022-07-28T04:30:47.567Z,2.45
2022-07-28T04:33:14.770Z,2.58
2022-07-28T04:35:41.880Z,2.70
2022-07-28T04:38:08.639Z,2.70
2022-07-28T04:40:35.730Z,2.55
2022-07-28T04:43:03.879Z,2.40
2022-07-28T04:45:30.947Z,2.95
2022-07-28T04:47:58.183Z,2.83
2022-07-28T04:50:25.519Z,3.65
2022-07-28T04:52:58.738Z,2.70
2022-07-28T04:55:28.060Z,2.78
2022-07-28T04:57:55.159Z,3.03
2022-07-28T05:00:23.041Z,2.40
2022-07-28T05:02:51.474Z,3.17
2022-07-28T05:05:18.796Z,2.85
2022-07-28T05:07:46.242Z,2.90
2022-07-28T05:10:13.594Z,2.60
2022-07-28T05:12:40.988Z,2.90
2022-07-28T05:15:09.477Z,3.22
2022-07-28T05:17:39.398Z,3.35
2022-07-28T05:20:08.378Z,2.72
2022-07-28T05:22:46.354Z,2.80
2022-07-28T05:25:14.759Z,2.70
2022-07-28T05:27:41.944Z,2.60
2022-07-28T05:30:10.046Z,2.60
2022-07-28T05:32:37.454Z,2.65
2022-07-28T05:35:05.191Z,2.47
2022-07-28T05:37:35.819Z,2.50
2022-07-28T05:40:08.414Z,2.70
2022-07-28T05:42:38.521Z,2.65
2022-07-28T05:47:52.525Z,2.58
2022-07-28T05:50:21.622Z,3.15
2022-07-28T05:52:49.291Z,2.30
2022-07-28T05:55:16.197Z,2.28
2022-07-28T05:57:43.407Z,2.67
2022-07-28T06:00:18.677Z,2.50
2022-07-28T06:02:47.341Z,2.40
2022-07-28T06:05:14.831Z,2.53
2022-07-28T06:07:43.838Z,2.60
2022-07-28T06:10:16.651Z,2.47
2022-07-28T06:12:54.786Z,2.40
2022-07-28T06:15:24.049Z,2.00
2022-07-28T06:17:55.347Z,2.47
2022-07-28T06:20:23.671Z,2.17
2022-07-28T06:22:52.601Z,2.13
2022-07-28T06:25:27.768Z,2.08
2022-07-28T06:27:56.316Z,2.05
2022-07-28T06:30:23.969Z,2.15
2022-07-28T06:32:52.448Z,2.25
2022-07-28T06:35:22.156Z,2.00
2022-07-28T06:37:50.638Z,1.90
2022-07-28T06:40:19.081Z,2.17
2022-07-28T06:42:46.620Z,1.88
2022-07-28T06:45:21.338Z,2.15
2022-07-28T06:47:52.500Z,1.75
2022-07-28T06:50:25.800Z,1.85
2022-07-28T06:52:59.089Z,2.10
2022-07-28T06:55:34.662Z,1.90
2022-07-28T06:58:03.729Z,1.85
2022-07-28T07:00:30.752Z,2.00
2022-07-28T07:02:58.070Z,1.73
2022-07-28T07:05:26.083Z,1.88
2022-07-28T07:07:52.791Z,2.03
2022-07-28T07:10:19.540Z,1.98
2022-07-28T07:12:46.268Z,1.98
2022-07-28T07:15:13.029Z,1.42
2022-07-28T07:17:39.812Z,1.83
2022-07-28T07:20:07.508Z,1.70
2022-07-28T07:22:34.639Z,1.27
2022-07-28T07:25:13.804Z,1.88
2022-07-28T07:27:40.933Z,1.60
2022-07-28T07:30:09.028Z,1.60
2022-07-28T07:32:36.269Z,1.30
2022-07-28T07:35:03.414Z,1.33
2022-07-28T07:37:32.513Z,1.50
2022-07-28T07:40:00.485Z,1.20
2022-07-28T07:42:27.766Z,1.25
2022-07-28T07:44:54.839Z,1.30
2022-07-28T07:47:21.765Z,1.42
2022-07-28T07:49:48.580Z,1.58
2022-07-28T07:52:15.775Z,1.23
2022-07-28T07:54:43.008Z,1.70
2022-07-28T07:57:10.541Z,1.70
2022-07-28T07:59:37.696Z,1.02
2022-07-28T08:02:04.806Z,1.30
2022-07-28T08:04:31.654Z,1.15
2022-07-28T08:07:04.942Z,1.10
2022-07-28T08:09:33.043Z,0.90
2022-07-28T08:12:00.167Z,1.40
2022-07-28T08:14:27.011Z,1.25
2022-07-28T08:16:56.473Z,1.40
2022-07-28T08:19:23.227Z,1.55
2022-07-28T08:21:50.595Z,0.90
2022-07-28T08:24:27.622Z,1.67
2022-07-28T08:27:01.188Z,1.15
2022-07-28T08:29:27.889Z,1.38
2022-07-28T08:31:54.622Z,1.30
2022-07-28T08:34:26.365Z,1.50
2022-07-28T08:36:59.395Z,1.70
2022-07-28T08:39:26.069Z,1.08
2022-07-28T08:42:18.439Z,1.17
2022-07-28T08:44:55.026Z,1.30
2022-07-28T08:47:22.175Z,1.25
2022-07-28T08:49:51.740Z,1.20
2022-07-28T08:52:21.506Z,1.05
2022-07-28T08:54:49.836Z,1.48
2022-07-28T08:57:28.176Z,1.08
2022-07-28T08:59:55.778Z,1.45
2022-07-28T09:02:26.843Z,1.20
2022-07-28T09:04:55.259Z,0.95
2022-07-28T09:07:23.918Z,1.27
2022-07-28T09:09:51.093Z,1.17
2022-07-28T09:12:27.164Z,1.17
2022-07-28T09:14:54.598Z,1.55
2022-07-28T09:17:21.713Z,1.50
2022-07-28T09:19:48.512Z,1.08
2022-07-28T09:22:15.239Z,1.48
2022-07-28T09:24:44.483Z,1.20
2022-07-28T09:29:40.735Z,1.10
2022-07-28T09:32:08.355Z,1.27
2022-07-28T09:34:42.834Z,1.70
2022-07-28T09:37:27.840Z,1.30
2022-07-28T09:39:59.587Z,1.20
2022-07-28T09:42:44.307Z,1.20
2022-07-28T09:45:26.495Z,0.90
2022-07-28T09:48:13.837Z,1.23
2022-07-28T09:50:41.816Z,1.30
2022-07-28T09:53:22.809Z,1.50
2022-07-28T09:55:55.687Z,1.27
2022-07-28T09:58:22.519Z,1.20
2022-07-28T10:01:03.160Z,1.35
2022-07-28T10:03:30.721Z,1.40
2022-07-28T10:05:59.074Z,1.35
2022-07-28T10:08:43.468Z,2.05
2022-07-28T10:11:11.693Z,1.58
2022-07-28T10:13:55.040Z,1.23
2022-07-28T10:16:23.578Z,1.40
2022-07-28T10:18:50.593Z,1.60
2022-07-28T10:21:18.800Z,1.50
2022-07-28T10:24:04.468Z,1.30
2022-07-28T10:26:39.061Z,1.20
2022-07-28T10:29:09.949Z,1.40
2022-07-28T10:31:55.124Z,1.20
2022-07-28T10:34:40.638Z,1.38
2022-07-28T10:37:18.940Z,1.15
2022-07-28T10:39:55.525Z,1.30
2022-07-28T10:42:22.620Z,1.40
2022-07-28T10:44:51.081Z,1.25
2022-07-28T10:47:20.195Z,1.08
2022-07-28T10:49:48.885Z,1.30
2022-07-28T10:52:37.682Z,1.30
2022-07-28T10:55:26.417Z,1.30
2022-07-28T10:58:36.676Z,1.50
2022-07-28T11:01:06.313Z,1.23
2022-07-28T11:03:38.408Z,1.48
2022-07-28T11:06:27.207Z,1.13
2022-07-28T11:08:55.593Z,1.17
2022-07-28T11:11:54.211Z,1.27
2022-07-28T11:14:24.692Z,1.20
2022-07-28T11:17:14.784Z,1.50
2022-07-28T11:20:16.810Z,1.50
2022-07-28T11:22:33.404Z,1.38
2022-07-28T11:25:01.089Z,1.40
2022-07-28T11:27:50.879Z,1.15
2022-07-28T11:30:33.611Z,1.35
2022-07-28T11:33:01.796Z,1.38
2022-07-28T11:35:30.062Z,1.20
2022-07-28T11:38:02.751Z,1.48
2022-07-28T11:40:30.047Z,1.25
2022-07-28T11:43:22.238Z,1.52
2022-07-28T11:46:12.405Z,1.10
2022-07-28T11:48:41.719Z,1.10
2022-07-28T11:51:10.853Z,1.40
2022-07-28T11:53:52.813Z,1.23
2022-07-28T11:56:24.502Z,1.35
2022-07-28T11:59:07.765Z,1.33
2022-07-28T12:01:38.241Z,1.40
2022-07-28T12:04:12.059Z,1.30
2022-07-28T12:06:42.490Z,1.30
2022-07-28T12:09:11.218Z,1.20
2022-07-28T12:11:42.195Z,1.20
2022-07-28T12:14:11.707Z,1.15
2022-07-28T12:16:40.973Z,1.30
2022-07-28T12:19:08.846Z,1.10
2022-07-28T12:24:45.970Z,1.30
2022-07-28T12:27:14.939Z,1.50
2022-07-28T12:32:12.130Z,1.40
2022-07-28T12:34:40.467Z,1.40
2022-07-28T12:37:09.708Z,1.30
2022-07-28T12:42:09.428Z,1.05
2022-07-28T12:45:07.569Z,1.50
2022-07-28T12:47:34.548Z,1.10
2022-07-28T12:50:15.862Z,1.27
2022-07-28T12:53:05.603Z,1.15
2022-07-28T12:55:32.492Z,1.40
2022-07-28T12:57:59.678Z,0.85
2022-07-28T13:00:35.048Z,1.15
2022-07-28T13:03:22.023Z,1.00
2022-07-28T13:06:03.777Z,1.13
2022-07-28T13:08:45.287Z,1.50
2022-07-28T13:11:42.106Z,1.30
2022-07-28T13:14:01.485Z,1.30
2022-07-28T13:16:29.798Z,1.38
2022-07-28T13:18:59.335Z,1.15
2022-07-28T13:21:58.653Z,1.33
2022-07-28T13:24:27.302Z,1.40
2022-07-28T13:26:53.992Z,1.58
2022-07-28T13:29:21.601Z,1.30
2022-07-28T13:31:48.973Z,1.15
2022-07-28T13:34:16.689Z,1.48
2022-07-28T13:36:43.880Z,1.50
2022-07-28T13:39:10.835Z,1.35
2022-07-28T13:41:56.412Z,1.40
2022-07-28T13:44:25.631Z,1.25
2022-07-28T13:46:53.142Z,1.20
2022-07-28T13:49:22.761Z,1.20
2022-07-28T13:51:51.154Z,1.50
2022-07-28T13:54:19.307Z,1.50
2022-07-28T13:56:47.177Z,1.50
2022-07-28T13:59:13.923Z,1.23
2022-07-28T14:01:42.478Z,1.27
2022-07-28T14:04:16.693Z,1.30
2022-07-28T14:06:45.201Z,1.27
2022-07-28T14:09:13.629Z,1.20
2022-07-28T14:11:49.901Z,1.20
2022-07-28T14:14:23.939Z,1.00
2022-07-28T14:16:52.578Z,1.05
2022-07-28T14:19:23.109Z,1.20
2022-07-28T14:21:55.216Z,1.20
2022-07-28T14:24:21.986Z,0.77
2022-07-28T14:26:48.815Z,1.45
2022-07-28T14:29:16.267Z,1.02
2022-07-28T14:31:43.486Z,1.30
2022-07-28T14:34:10.807Z,1.40
2022-07-28T14:36:37.772Z,1.30
2022-07-28T14:39:09.163Z,1.38
2022-07-28T14:41:39.092Z,1.08
2022-07-28T14:44:06.208Z,1.30
2022-07-28T14:49:09.005Z,1.30
2022-07-28T14:51:40.391Z,1.55
2022-07-28T14:54:09.634Z,1.30
2022-07-28T14:56:36.836Z,1.75
2022-07-28T14:59:03.563Z,1.17
2022-07-28T15:01:35.613Z,1.30
2022-07-28T15:04:03.487Z,1.40
2022-07-28T15:06:30.360Z,1.30
2022-07-28T15:08:58.249Z,1.45
2022-07-28T15:11:25.622Z,1.55
2022-07-28T15:13:52.297Z,1.42
2022-07-28T15:16:19.522Z,1.33
2022-07-28T15:18:46.323Z,1.30
2022-07-28T15:21:16.455Z,1.60
2022-07-28T15:23:43.995Z,1.48
2022-07-28T15:26:11.348Z,1.77
2022-07-28T15:28:39.055Z,1.35
2022-07-28T15:31:08.974Z,1.85
2022-07-28T15:33:41.128Z,1.55
2022-07-28T15:36:15.167Z,1.40
2022-07-28T15:38:42.043Z,1.60
2022-07-28T15:41:15.089Z,1.00
2022-07-28T15:43:42.269Z,1.23
2022-07-28T15:46:11.171Z,1.30
2022-07-28T15:48:43.813Z,1.52
2022-07-28T15:51:11.104Z,1.40
2022-07-28T15:53:38.625Z,1.30
2022-07-28T15:56:06.000Z,1.42
2022-07-28T15:58:35.588Z,1.45
2022-07-28T16:01:02.362Z,1.35
2022-07-28T16:03:30.117Z,1.73
2022-07-28T16:05:56.999Z,1.45
2022-07-28T16:08:23.872Z,1.60
2022-07-28T16:10:52.589Z,1.40
2022-07-28T16:13:36.805Z,1.45
2022-07-28T16:16:12.813Z,1.50
2022-07-28T16:18:42.394Z,1.30
2022-07-28T16:21:10.610Z,1.60
2022-07-28T16:23:37.782Z,1.60
2022-07-28T16:26:07.562Z,1.70
2022-07-28T16:28:34.834Z,1.50
2022-07-28T16:31:01.966Z,1.80
2022-07-28T16:33:33.498Z,1.48
2022-07-28T16:36:01.502Z,1.65
2022-07-28T16:38:28.715Z,1.52
2022-07-28T16:40:57.056Z,1.48
2022-07-28T16:43:23.780Z,1.60
2022-07-28T16:45:53.624Z,1.38
2022-07-28T16:48:20.773Z,1.60
2022-07-28T16:50:47.887Z,2.17
2022-07-28T16:53:14.750Z,1.40
2022-07-28T16:55:45.341Z,1.60
2022-07-28T16:58:12.452Z,1.45
2022-07-28T17:00:39.181Z,1.55
2022-07-28T17:03:05.860Z,1.60
2022-07-28T17:05:33.875Z,1.45
2022-07-28T17:08:00.560Z,1.60
2022-07-28T17:10:27.890Z,1.70
2022-07-28T17:12:55.132Z,1.77
2022-07-28T17:15:23.071Z,1.65
2022-07-28T17:17:51.408Z,1.55
2022-07-28T17:20:19.016Z,1.80
2022-07-28T17:22:46.279Z,1.85
2022-07-28T17:25:47.571Z,1.50
2022-07-28T17:28:04.506Z,1.60
2022-07-28T17:30:32.984Z,1.55
2022-07-28T17:33:08.377Z,1.52
2022-07-28T17:38:07.216Z,1.80
2022-07-28T17:40:34.544Z,1.73
2022-07-28T17:43:01.274Z,1.80
2022-07-28T17:45:28.411Z,1.70
2022-07-28T17:47:55.152Z,1.52
2022-07-28T17:50:21.964Z,1.55
2022-07-28T17:52:49.159Z,1.70
2022-07-28T17:55:57.602Z,1.67
2022-07-28T17:58:28.691Z,1.85
2022-07-28T18:01:09.724Z,1.80
2022-07-28T18:03:57.550Z,1.58
2022-07-28T18:06:33.749Z,1.40
2022-07-28T18:09:10.498Z,1.58
2022-07-28T18:11:56.669Z,1.50
2022-07-28T18:14:29.808Z,1.70
2022-07-28T18:16:57.689Z,1.70
2022-07-28T18:19:25.238Z,1.48
2022-07-28T18:21:52.034Z,1.58
2022-07-28T18:24:21.562Z,1.60
2022-07-28T18:26:49.974Z,1.70
2022-07-28T18:29:17.652Z,1.70
2022-07-28T18:31:47.442Z,1.80
2022-07-28T18:34:15.598Z,1.60
2022-07-28T18:36:42.617Z,1.85
2022-07-28T18:39:09.463Z,1.50
2022-07-28T18:41:46.967Z,1.73
2022-07-28T18:44:16.721Z,1.70
2022-07-28T18:49:11.686Z,1.77
2022-07-28T18:51:50.225Z,1.80
2022-07-28T18:54:27.617Z,1.73
2022-07-28T18:56:55.378Z,1.83
2022-07-28T18:59:22.881Z,1.63
2022-07-28T19:01:50.265Z,2.00
2022-07-28T19:04:17.480Z,2.03
2022-07-28T19:06:44.804Z,1.70
2022-07-28T19:09:11.698Z,1.80
2022-07-28T19:11:45.421Z,1.98
2022-07-28T19:14:13.425Z,1.85
2022-07-28T19:16:46.832Z,2.00
2022-07-28T19:19:16.042Z,1.88
2022-07-28T19:21:43.291Z,2.00
2022-07-28T19:24:10.894Z,1.40
2022-07-28T19:26:40.032Z,2.00
2022-07-28T19:29:06.961Z,1.80
2022-07-28T19:31:33.971Z,1.70
2022-07-28T19:34:00.958Z,1.95
2022-07-28T19:36:33.411Z,2.05
2022-07-28T19:39:03.695Z,2.17
2022-07-28T19:41:31.568Z,1.85
2022-07-28T19:43:58.377Z,1.80
2022-07-28T19:46:26.176Z,1.70
2022-07-28T19:48:54.453Z,1.95
2022-07-28T19:51:21.631Z,1.52
2022-07-28T19:53:48.834Z,1.60
2022-07-28T19:56:15.530Z,2.00
2022-07-28T19:58:45.184Z,1.80
2022-07-28T20:01:12.354Z,2.00
2022-07-28T20:04:01.793Z,1.80
2022-07-28T20:06:28.103Z,1.98
2022-07-28T20:08:54.857Z,2.05
2022-07-28T20:11:23.886Z,2.10
2022-07-28T20:13:50.689Z,1.95
2022-07-28T20:16:17.916Z,2.35
2022-07-28T20:18:45.159Z,1.80
2022-07-28T20:21:12.340Z,2.00
2022-07-28T20:23:42.383Z,1.58
2022-07-28T20:26:10.061Z,2.10
2022-07-28T20:28:37.737Z,1.98
2022-07-28T20:31:07.626Z,2.00
2022-07-28T20:33:34.564Z,2.15
2022-07-28T20:36:01.278Z,2.05
2022-07-28T20:38:27.980Z,2.05
2022-07-28T20:40:55.170Z,1.70
2022-07-28T20:43:22.300Z,1.90
2022-07-28T20:45:48.959Z,1.95
2022-07-28T20:48:16.108Z,1.70
2022-07-28T20:50:43.304Z,2.03
2022-07-28T20:53:10.706Z,2.15
2022-07-28T20:55:40.160Z,1.70
2022-07-28T20:58:07.261Z,2.00
2022-07-28T21:00:34.509Z,2.10
2022-07-28T21:03:01.741Z,1.52
2022-07-28T21:05:35.698Z,1.90
2022-07-28T21:08:09.215Z,1.70
2022-07-28T21:10:37.119Z,2.13
2022-07-28T21:13:04.406Z,2.97
2022-07-28T21:15:31.646Z,1.98
2022-07-28T21:17:59.140Z,1.92
2022-07-28T21:20:26.271Z,2.08
2022-07-28T21:22:53.696Z,2.20
2022-07-28T21:25:20.525Z,2.30
2022-07-28T21:28:06.016Z,2.20
2022-07-28T21:30:33.148Z,1.63
2022-07-28T21:33:00.360Z,2.38
2022-07-28T21:35:27.526Z,2.20
2022-07-28T21:37:54.324Z,1.70
2022-07-28T21:40:21.481Z,2.05
2022-07-28T21:42:48.638Z,2.00
2022-07-28T21:45:15.378Z,2.22
2022-07-28T21:47:42.261Z,2.13
2022-07-28T21:50:09.845Z,1.92
2022-07-28T21:52:37.261Z,2.08
2022-07-28T21:55:06.002Z,2.25
2022-07-28T21:57:32.776Z,2.08
2022-07-28T21:59:59.878Z,2.08
2022-07-28T22:02:27.062Z,2.03
2022-07-28T22:04:54.388Z,1.88
2022-07-28T22:07:21.575Z,1.75
2022-07-28T22:09:48.263Z,2.25
2022-07-28T22:12:15.074Z,2.20
2022-07-28T22:14:44.861Z,2.15
2022-07-28T22:17:12.143Z,2.90
2022-07-28T22:19:39.244Z,2.20
2022-07-28T22:22:06.364Z,2.20
2022-07-28T22:24:34.285Z,2.30
2022-07-28T22:27:01.371Z,2.60
2022-07-28T22:29:31.045Z,2.10
2022-07-28T22:31:59.586Z,2.30
2022-07-28T22:34:27.927Z,2.22
2022-07-28T22:36:54.881Z,2.08
2022-07-28T22:39:22.068Z,2.17
2022-07-28T22:41:48.929Z,2.00
2022-07-28T22:44:15.993Z,1.95
2022-07-28T22:46:43.203Z,2.25
2022-07-28T22:49:10.571Z,2.25
2022-07-28T22:51:37.982Z,2.08
2022-07-28T22:54:05.228Z,2.03
2022-07-28T22:56:34.810Z,2.20
2022-07-28T22:59:04.904Z,2.13
2022-07-28T23:01:31.753Z,2.25
2022-07-28T23:03:58.682Z,2.17
2022-07-28T23:06:25.924Z,2.35
2022-07-28T23:08:53.222Z,2.17
2022-07-28T23:11:20.485Z,2.17
2022-07-28T23:13:47.702Z,2.30
2022-07-28T23:16:16.920Z,2.20
2022-07-28T23:18:44.362Z,2.30
2022-07-28T23:21:12.303Z,2.40
2022-07-28T23:23:39.151Z,2.15
2022-07-28T23:26:06.367Z,2.33
2022-07-28T23:28:36.042Z,2.40
2022-07-28T23:31:03.945Z,2.40
2022-07-28T23:33:56.730Z,2.15
2022-07-28T23:36:26.299Z,1.80
2022-07-28T23:38:55.265Z,2.20
2022-07-28T23:41:22.017Z,2.30
2022-07-28T23:43:48.984Z,2.35
2022-07-28T23:46:15.816Z,2.33
2022-07-28T23:48:42.730Z,2.38
2022-07-28T23:51:09.966Z,2.50
2022-07-28T23:53:38.425Z,2.47
2022-07-28T23:56:05.650Z,2.28
2022-07-28T23:58:32.551Z,2.30
